Mechanicsvlle, Virginia
Current Conditions -  °F | °C
As of 6:54 PM on Wednesday 28 Jan 2015 (Local Time) from KRIC Reporting Station
Few Clouds Few Clouds  
Wind Chill: -1°   Ceiling: Unl
Heat Index:   Visibility: 10mi
Dew Point: -17°   Wind: 8mph
Humidity: 24%   Direction: 330°NNW
Pressure: 30.28"   Gusts: NA
Location:  37.634°N, 77.2585°W
Report Text: KRIC 282354Z 33007KT 10SM FEW300 02/M17 A3028 RMK AO2 SLP260 T00221167 10067 20017 52020
Loading
Personal Weather Stations






























Interactive Weather Map New forecast layout! Learn more

10-Day Weather Forecast

Advertisements
Track Severe Weather on mobile